CDT,Max TemperatureF,Mean TemperatureF,Min TemperatureF,Max Dew PointF,MeanDew PointF,Min DewpointF,Max Humidity, Mean Humidity, Min Humidity, Max Sea Level PressureIn, Mean Sea Level PressureIn, Min Sea Level PressureIn, Max VisibilityMiles, Mean VisibilityMiles, Min VisibilityMiles, Max Wind SpeedMPH, Mean Wind SpeedMPH, Max Gust SpeedMPH,PrecipitationIn, CloudCover, Events, WindDirDegrees
2013-10-1,87,75,62,71,66,62,100,74,48,29.94,29.89,29.83,10,7,2,17,9,23,0.00,3,,147
2013-10-2,86,78,69,72,70,67,100,78,55,29.99,29.92,29.83,10,10,7,21,11,26,0.00,4,,157
2013-10-3,87,80,72,72,70,68,93,76,59,29.88,29.82,29.73,10,10,10,24,16,32,0.00,3,,163
2013-10-4,88,81,73,71,69,67,93,72,50,29.85,29.80,29.75,10,10,10,26,15,31,0.00,5,,167
2013-10-5,77,63,49,67,50,39,100,69,37,30.10,29.99,29.85,10,8,1,24,10,32,1.08,5,Rain-Thunderstorm,307
2013-10-6,68,58,48,46,41,37,80,60,39,30.04,30.01,29.98,10,10,10,22,9,27,0.00,0,,282
2013-10-7,75,60,45,50,43,38,89,59,29,30.17,30.10,30.03,10,10,10,9,3,13,0.00,0,,295
2013-10-8,75,62,48,51,49,46,93,66,38,30.12,30.07,30.01,10,10,10,20,8,24,0.00,1,,134
2013-10-9,78,64,49,56,52,48,93,70,47,30.08,30.02,29.99,10,10,10,16,8,21,0.00,1,,145
2013-10-10,80,67,53,60,56,51,93,69,45,30.05,29.97,29.84,10,10,10,21,10,26,0.00,1,,146
2013-10-11,83,73,62,69,64,56,87,73,58,29.86,29.82,29.76,10,10,10,24,14,31,T,3,Thunderstorm,167
2013-10-12,74,65,56,69,57,50,97,72,46,30.14,30.00,29.82,10,10,2,20,11,27,0.17,4,Rain-Thunderstorm,6
2013-10-13,76,67,58,62,55,48,80,68,56,30.28,30.21,30.15,10,10,10,12,8,17,T,7,,60
2013-10-14,66,63,59,65,60,56,100,89,78,30.17,30.02,29.89,10,7,2,18,10,25,0.85,8,Rain,143
2013-10-15,72,62,52,67,54,43,97,75,53,30.10,29.97,29.86,10,10,4,22,10,28,0.06,7,Rain-Thunderstorm,330
2013-10-16,61,52,42,44,40,37,86,64,42,30.17,30.10,30.05,10,10,10,15,7,19,0.01,5,Rain,333
2013-10-17,67,55,43,46,41,39,83,60,37,30.08,30.03,29.95,10,10,7,12,4,16,0.00,0,,224
2013-10-18,56,48,39,45,41,37,96,80,64,30.17,30.07,30.02,10,8,2,18,11,25,0.19,7,Rain,352
2013-10-19,64,49,34,37,34,31,92,60,28,30.18,30.11,30.01,10,10,8,14,6,17,0.00,2,,220
2013-10-20,70,56,42,42,38,34,76,51,26,30.00,29.94,29.85,10,10,10,22,10,29,0.00,1,,171
2013-10-21,61,52,42,44,39,33,82,59,36,30.13,30.06,29.94,10,10,10,20,7,25,0.02,5,Rain,57
2013-10-22,73,58,42,43,39,35,76,53,29,30.11,30.04,29.97,10,10,10,18,8,24,0.00,1,,266
2013-10-23,67,53,39,43,39,35,85,61,37,30.20,30.12,30.01,10,9,0,14,5,18,0.00,0,,29
2013-10-24,58,50,41,42,34,28,89,64,38,30.43,30.29,30.09,10,10,10,23,9,31,0.00,1,,19
2013-10-25,59,47,34,38,31,28,82,58,33,30.50,30.39,30.22,10,10,10,16,8,22,0.00,3,,145
2013-10-26,67,58,49,51,45,37,89,74,59,30.21,30.15,30.09,10,10,9,15,7,20,0.00,7,,171
2013-10-27,68,52,36,47,35,27,85,54,22,30.14,30.07,29.98,10,10,10,9,4,12,0.00,1,,313
2013-10-28,70,61,51,57,52,45,93,73,53,30.15,30.06,30.01,10,8,1,18,10,21,0.01,7,,162
2013-10-29,76,69,62,65,62,56,87,78,69,30.04,29.98,29.90,10,10,6,24,14,29,0.04,7,Rain,166
2013-10-30,71,68,65,65,63,59,87,83,79,29.98,29.88,29.74,10,7,1,29,15,35,0.84,8,Rain-Thunderstorm,168
2013-10-31,70,62,54,62,55,41,87,66,44,29.79,29.63,29.53,10,10,5,31,11,37,0.25,6,Rain,223